This is the latest recevied weather packets stored in our database for station/object KD0RII. If no packets are shown the sender has not sent any weather packets the latest 10 day(s).
| Time | Temp. | Humidity | Pressure | Rain* | Wind** | Luminosity | Snow |
|---|---|---|---|---|---|---|---|
| 1777914697 | 26.67° C | 46% | 1005.1 hPa | 0 mm | - | 509 W/m² | - |
| 1777914393 | 26.67° C | 47% | 1005.1 hPa | 0 mm | - | 724 W/m² | - |
| 1777914091 | 26.67° C | 44% | 1005.2 hPa | 0 mm | - | 763 W/m² | - |
| 1777913786 | 26.67° C | 43% | 1005.2 hPa | 0 mm | - | 735 W/m² | - |
| 1777913483 | 27.22° C | 46% | 1005.4 hPa | 0 mm | - | 719 W/m² | - |
| 1777913180 | 27.22° C | 45% | 1005.4 hPa | 0 mm | - | 702 W/m² | - |
| 1777912875 | 26.67° C | 45% | 1005.3 hPa | 0 mm | - | 638 W/m² | - |
| 1777912572 | 27.22° C | 45% | 1005.3 hPa | 0 mm | - | 682 W/m² | - |
| 1777912269 | 27.22° C | 44% | 1005.4 hPa | 0 mm | - | 669 W/m² | - |
| 1777911964 | 26.67° C | 46% | 1005.3 hPa | 0 mm | - | 657 W/m² | - |
| 1777911661 | 26.11° C | 45% | 1005.3 hPa | 0 mm | - | 645 W/m² | - |
| 1777911357 | 26.11° C | 45% | 1005.3 hPa | 0 mm | - | 634 W/m² | - |
| 1777911055 | 26.11° C | 46% | 1005.5 hPa | 0 mm | - | 622 W/m² | - |
| 1777910752 | 26.11° C | 48% | 1005.4 hPa | 0 mm | - | 609 W/m² | - |
| 1777910449 | 25.56° C | 49% | 1005 hPa | 0 mm | - | 597 W/m² | - |
| 1777910145 | 26.11° C | 46% | 1005.4 hPa | 0 mm | - | 586 W/m² | - |
| 1777909843 | 25.56° C | 49% | 1005.3 hPa | 0 mm | - | 574 W/m² | - |
| 1777909539 | 25.56° C | 50% | 1005.4 hPa | 0 mm | - | 559 W/m² | - |
| 1777909237 | 25° C | 49% | 1005.3 hPa | 0 mm | - | 547 W/m² | - |
| 1777908935 | 25° C | 49% | 1005.4 hPa | 0 mm | - | 535 W/m² | - |
| 1777908633 | 24.44° C | 50% | 1005.6 hPa | 0 mm | - | 522 W/m² | - |
| 1777908329 | 24.44° C | 51% | 1005.7 hPa | 0 mm | - | 509 W/m² | - |
| 1777908026 | 24.44° C | 50% | 1005.4 hPa | 0 mm | - | 494 W/m² | - |
| 1777907721 | 24.44° C | 53% | 1005.5 hPa | 0 mm | - | 481 W/m² | - |
| 1777907416 | 23.89° C | 50% | 1005.4 hPa | 0 mm | - | 466 W/m² | - |
* Rain latest hour (hover to see other rain measurements)
** Current wind speed in m/s (hover to see current wind gust speed)